sensor_id;sensor_type;location;lat;lon;timestamp;P1;durP1;ratioP1;P2;durP2;ratioP2
52414;SDS011;38340;52.964;6.086;2024-02-21T00:02:09;19.75;;;6.22;;
52414;SDS011;38340;52.964;6.086;2024-02-21T00:04:34;20.20;;;5.13;;
52414;SDS011;38340;52.964;6.086;2024-02-21T00:07:01;16.33;;;5.05;;
52414;SDS011;38340;52.964;6.086;2024-02-21T00:09:27;24.98;;;6.80;;
52414;SDS011;38340;52.964;6.086;2024-02-21T00:11:53;19.58;;;5.50;;
52414;SDS011;38340;52.964;6.086;2024-02-21T00:14:18;19.08;;;5.85;;
52414;SDS011;38340;52.964;6.086;2024-02-21T00:16:44;19.95;;;6.47;;
52414;SDS011;38340;52.964;6.086;2024-02-21T00:19:10;23.35;;;6.22;;
52414;SDS011;38340;52.964;6.086;2024-02-21T00:21:36;19.77;;;6.50;;
52414;SDS011;38340;52.964;6.086;2024-02-21T00:24:02;22.02;;;7.32;;
52414;SDS011;38340;52.964;6.086;2024-02-21T00:26:27;23.75;;;6.35;;
52414;SDS011;38340;52.964;6.086;2024-02-21T00:28:53;24.55;;;6.70;;
52414;SDS011;38340;52.964;6.086;2024-02-21T00:31:19;19.52;;;6.00;;
52414;SDS011;38340;52.964;6.086;2024-02-21T00:33:44;24.40;;;6.95;;
52414;SDS011;38340;52.964;6.086;2024-02-21T00:36:10;24.13;;;7.70;;
52414;SDS011;38340;52.964;6.086;2024-02-21T00:38:36;25.63;;;6.57;;
52414;SDS011;38340;52.964;6.086;2024-02-21T00:41:01;24.40;;;6.50;;
52414;SDS011;38340;52.964;6.086;2024-02-21T00:43:27;20.83;;;8.05;;
52414;SDS011;38340;52.964;6.086;2024-02-21T00:45:53;25.00;;;7.28;;
52414;SDS011;38340;52.964;6.086;2024-02-21T00:48:18;20.02;;;7.20;;
52414;SDS011;38340;52.964;6.086;2024-02-21T00:50:44;29.20;;;7.75;;
52414;SDS011;38340;52.964;6.086;2024-02-21T00:53:10;27.27;;;6.88;;
52414;SDS011;38340;52.964;6.086;2024-02-21T00:55:35;25.05;;;6.90;;
52414;SDS011;38340;52.964;6.086;2024-02-21T00:58:01;22.90;;;7.00;;
52414;SDS011;38340;52.964;6.086;2024-02-21T01:00:27;20.60;;;7.63;;
52414;SDS011;38340;52.964;6.086;2024-02-21T01:02:52;31.30;;;8.07;;
52414;SDS011;38340;52.964;6.086;2024-02-21T01:05:18;27.08;;;7.72;;
52414;SDS011;38340;52.964;6.086;2024-02-21T01:07:45;29.60;;;6.97;;
52414;SDS011;38340;52.964;6.086;2024-02-21T01:10:11;31.20;;;8.00;;
52414;SDS011;38340;52.964;6.086;2024-02-21T01:12:36;22.88;;;7.90;;
52414;SDS011;38340;52.964;6.086;2024-02-21T01:15:02;31.50;;;8.75;;
52414;SDS011;38340;52.964;6.086;2024-02-21T01:17:28;28.02;;;8.32;;
52414;SDS011;38340;52.964;6.086;2024-02-21T01:19:54;24.80;;;8.27;;
52414;SDS011;38340;52.964;6.086;2024-02-21T01:22:19;27.02;;;8.00;;
52414;SDS011;38340;52.964;6.086;2024-02-21T01:24:45;31.58;;;8.32;;
52414;SDS011;38340;52.964;6.086;2024-02-21T01:27:11;32.17;;;9.57;;
52414;SDS011;38340;52.964;6.086;2024-02-21T01:29:37;30.23;;;8.88;;
52414;SDS011;38340;52.964;6.086;2024-02-21T01:32:03;33.63;;;8.95;;
52414;SDS011;38340;52.964;6.086;2024-02-21T01:34:28;31.95;;;8.90;;
52414;SDS011;38340;52.964;6.086;2024-02-21T01:36:54;30.58;;;9.20;;
52414;SDS011;38340;52.964;6.086;2024-02-21T01:39:20;32.55;;;9.10;;
52414;SDS011;38340;52.964;6.086;2024-02-21T01:41:45;36.63;;;9.10;;
52414;SDS011;38340;52.964;6.086;2024-02-21T01:44:11;27.98;;;8.43;;
52414;SDS011;38340;52.964;6.086;2024-02-21T01:46:37;34.50;;;8.65;;
52414;SDS011;38340;52.964;6.086;2024-02-21T01:49:02;37.47;;;9.38;;
52414;SDS011;38340;52.964;6.086;2024-02-21T01:51:30;28.52;;;8.70;;
52414;SDS011;38340;52.964;6.086;2024-02-21T01:53:56;43.75;;;8.93;;
52414;SDS011;38340;52.964;6.086;2024-02-21T01:56:22;26.90;;;9.15;;
52414;SDS011;38340;52.964;6.086;2024-02-21T01:58:49;25.52;;;8.63;;
52414;SDS011;38340;52.964;6.086;2024-02-21T02:01:16;28.30;;;8.95;;
52414;SDS011;38340;52.964;6.086;2024-02-21T02:03:42;29.95;;;8.20;;
52414;SDS011;38340;52.964;6.086;2024-02-21T02:06:10;25.85;;;9.30;;
52414;SDS011;38340;52.964;6.086;2024-02-21T02:08:35;33.55;;;8.98;;
52414;SDS011;38340;52.964;6.086;2024-02-21T02:11:01;48.85;;;11.70;;
52414;SDS011;38340;52.964;6.086;2024-02-21T02:13:27;28.90;;;8.80;;
52414;SDS011;38340;52.964;6.086;2024-02-21T02:15:53;37.92;;;9.73;;
52414;SDS011;38340;52.964;6.086;2024-02-21T02:18:19;36.05;;;10.57;;
52414;SDS011;38340;52.964;6.086;2024-02-21T02:20:45;37.67;;;10.18;;
52414;SDS011;38340;52.964;6.086;2024-02-21T02:23:30;37.83;;;9.93;;
52414;SDS011;38340;52.964;6.086;2024-02-21T02:25:56;34.67;;;10.27;;
52414;SDS011;38340;52.964;6.086;2024-02-21T02:28:23;36.25;;;10.27;;
52414;SDS011;38340;52.964;6.086;2024-02-21T02:30:49;36.08;;;9.23;;
52414;SDS011;38340;52.964;6.086;2024-02-21T02:33:15;33.35;;;10.98;;
52414;SDS011;38340;52.964;6.086;2024-02-21T02:35:44;36.25;;;10.35;;
52414;SDS011;38340;52.964;6.086;2024-02-21T02:38:10;37.55;;;9.27;;
52414;SDS011;38340;52.964;6.086;2024-02-21T02:40:40;35.65;;;10.13;;
52414;SDS011;38340;52.964;6.086;2024-02-21T02:43:06;36.75;;;10.05;;
52414;SDS011;38340;52.964;6.086;2024-02-21T02:45:32;41.97;;;9.00;;
52414;SDS011;38340;52.964;6.086;2024-02-21T02:47:58;36.58;;;9.45;;
52414;SDS011;38340;52.964;6.086;2024-02-21T02:50:25;33.90;;;9.40;;
52414;SDS011;38340;52.964;6.086;2024-02-21T02:52:51;30.30;;;8.35;;
52414;SDS011;38340;52.964;6.086;2024-02-21T02:55:18;34.05;;;9.30;;
52414;SDS011;38340;52.964;6.086;2024-02-21T02:57:44;39.60;;;10.63;;
52414;SDS011;38340;52.964;6.086;2024-02-21T03:00:10;38.25;;;10.63;;
52414;SDS011;38340;52.964;6.086;2024-02-21T03:02:37;43.63;;;11.13;;
52414;SDS011;38340;52.964;6.086;2024-02-21T03:05:11;38.95;;;11.68;;
52414;SDS011;38340;52.964;6.086;2024-02-21T03:07:44;43.97;;;12.15;;
52414;SDS011;38340;52.964;6.086;2024-02-21T03:10:11;36.17;;;11.48;;
52414;SDS011;38340;52.964;6.086;2024-02-21T03:12:37;35.65;;;11.98;;
52414;SDS011;38340;52.964;6.086;2024-02-21T03:15:03;31.83;;;11.30;;
52414;SDS011;38340;52.964;6.086;2024-02-21T03:17:29;34.72;;;12.00;;
52414;SDS011;38340;52.964;6.086;2024-02-21T03:19:55;51.78;;;12.38;;
52414;SDS011;38340;52.964;6.086;2024-02-21T03:22:24;35.53;;;10.90;;
52414;SDS011;38340;52.964;6.086;2024-02-21T03:24:49;38.88;;;10.20;;
52414;SDS011;38340;52.964;6.086;2024-02-21T03:27:15;32.40;;;10.43;;
52414;SDS011;38340;52.964;6.086;2024-02-21T03:29:41;29.75;;;9.55;;
52414;SDS011;38340;52.964;6.086;2024-02-21T03:32:07;37.80;;;10.45;;
52414;SDS011;38340;52.964;6.086;2024-02-21T03:34:33;34.50;;;10.52;;
52414;SDS011;38340;52.964;6.086;2024-02-21T03:36:59;30.65;;;10.15;;
52414;SDS011;38340;52.964;6.086;2024-02-21T03:39:25;29.25;;;10.13;;
52414;SDS011;38340;52.964;6.086;2024-02-21T03:41:50;29.15;;;10.25;;
52414;SDS011;38340;52.964;6.086;2024-02-21T03:44:16;32.50;;;9.02;;
52414;SDS011;38340;52.964;6.086;2024-02-21T03:46:42;27.10;;;9.95;;
52414;SDS011;38340;52.964;6.086;2024-02-21T03:49:08;25.42;;;9.07;;
52414;SDS011;38340;52.964;6.086;2024-02-21T03:51:33;21.88;;;9.02;;
52414;SDS011;38340;52.964;6.086;2024-02-21T03:53:59;27.25;;;9.40;;
52414;SDS011;38340;52.964;6.086;2024-02-21T03:56:25;31.83;;;9.90;;
52414;SDS011;38340;52.964;6.086;2024-02-21T03:58:50;28.08;;;9.60;;
52414;SDS011;38340;52.964;6.086;2024-02-21T04:01:16;28.42;;;8.70;;
52414;SDS011;38340;52.964;6.086;2024-02-21T04:03:42;27.05;;;9.82;;
52414;SDS011;38340;52.964;6.086;2024-02-21T04:06:09;31.92;;;10.55;;
52414;SDS011;38340;52.964;6.086;2024-02-21T04:08:35;27.17;;;8.98;;
52414;SDS011;38340;52.964;6.086;2024-02-21T04:11:00;18.70;;;8.13;;
52414;SDS011;38340;52.964;6.086;2024-02-21T04:13:26;32.92;;;9.00;;
52414;SDS011;38340;52.964;6.086;2024-02-21T04:15:52;30.55;;;8.98;;
52414;SDS011;38340;52.964;6.086;2024-02-21T04:18:17;20.30;;;8.10;;
52414;SDS011;38340;52.964;6.086;2024-02-21T04:20:43;25.58;;;8.32;;
52414;SDS011;38340;52.964;6.086;2024-02-21T04:23:09;27.92;;;8.68;;
52414;SDS011;38340;52.964;6.086;2024-02-21T04:25:34;22.70;;;8.30;;
52414;SDS011;38340;52.964;6.086;2024-02-21T04:28:01;29.88;;;9.00;;
52414;SDS011;38340;52.964;6.086;2024-02-21T04:30:26;33.38;;;8.65;;
52414;SDS011;38340;52.964;6.086;2024-02-21T04:32:52;32.58;;;8.45;;
52414;SDS011;38340;52.964;6.086;2024-02-21T04:35:18;26.92;;;8.18;;
52414;SDS011;38340;52.964;6.086;2024-02-21T04:37:43;31.33;;;8.77;;
52414;SDS011;38340;52.964;6.086;2024-02-21T04:40:09;30.58;;;8.13;;
52414;SDS011;38340;52.964;6.086;2024-02-21T04:42:36;25.67;;;8.57;;
52414;SDS011;38340;52.964;6.086;2024-02-21T04:45:02;26.65;;;8.70;;
52414;SDS011;38340;52.964;6.086;2024-02-21T04:47:27;27.85;;;9.07;;
52414;SDS011;38340;52.964;6.086;2024-02-21T04:49:53;30.77;;;10.02;;
52414;SDS011;38340;52.964;6.086;2024-02-21T04:52:19;31.90;;;8.55;;
52414;SDS011;38340;52.964;6.086;2024-02-21T04:54:45;29.48;;;9.45;;
52414;SDS011;38340;52.964;6.086;2024-02-21T04:57:10;24.33;;;8.82;;
52414;SDS011;38340;52.964;6.086;2024-02-21T04:59:36;28.13;;;9.57;;
52414;SDS011;38340;52.964;6.086;2024-02-21T05:02:02;31.95;;;9.88;;
52414;SDS011;38340;52.964;6.086;2024-02-21T05:04:28;27.30;;;9.73;;
52414;SDS011;38340;52.964;6.086;2024-02-21T05:06:54;26.08;;;10.80;;
52414;SDS011;38340;52.964;6.086;2024-02-21T05:09:19;28.33;;;8.98;;
52414;SDS011;38340;52.964;6.086;2024-02-21T05:11:46;29.35;;;9.70;;
52414;SDS011;38340;52.964;6.086;2024-02-21T05:14:11;28.30;;;8.88;;
52414;SDS011;38340;52.964;6.086;2024-02-21T05:16:38;31.80;;;8.82;;
52414;SDS011;38340;52.964;6.086;2024-02-21T05:19:04;28.00;;;9.65;;
52414;SDS011;38340;52.964;6.086;2024-02-21T05:21:30;26.42;;;9.32;;
52414;SDS011;38340;52.964;6.086;2024-02-21T05:23:56;33.50;;;10.48;;
52414;SDS011;38340;52.964;6.086;2024-02-21T05:26:22;34.88;;;9.82;;
52414;SDS011;38340;52.964;6.086;2024-02-21T05:28:49;34.22;;;11.23;;
52414;SDS011;38340;52.964;6.086;2024-02-21T05:31:15;31.17;;;10.82;;
52414;SDS011;38340;52.964;6.086;2024-02-21T05:33:43;34.22;;;11.38;;
52414;SDS011;38340;52.964;6.086;2024-02-21T05:36:09;26.77;;;10.15;;
52414;SDS011;38340;52.964;6.086;2024-02-21T05:38:35;33.95;;;10.93;;
52414;SDS011;38340;52.964;6.086;2024-02-21T05:41:01;47.72;;;12.70;;
52414;SDS011;38340;52.964;6.086;2024-02-21T05:43:28;48.53;;;12.23;;
52414;SDS011;38340;52.964;6.086;2024-02-21T05:45:53;38.83;;;11.75;;
52414;SDS011;38340;52.964;6.086;2024-02-21T05:48:20;30.55;;;12.32;;
52414;SDS011;38340;52.964;6.086;2024-02-21T05:50:46;42.33;;;12.45;;
52414;SDS011;38340;52.964;6.086;2024-02-21T05:53:12;34.85;;;11.73;;
52414;SDS011;38340;52.964;6.086;2024-02-21T05:55:38;35.67;;;11.98;;
52414;SDS011;38340;52.964;6.086;2024-02-21T05:58:04;46.78;;;13.82;;
52414;SDS011;38340;52.964;6.086;2024-02-21T06:00:31;35.92;;;12.82;;
52414;SDS011;38340;52.964;6.086;2024-02-21T06:02:57;40.97;;;13.02;;
52414;SDS011;38340;52.964;6.086;2024-02-21T06:05:23;36.90;;;12.23;;
52414;SDS011;38340;52.964;6.086;2024-02-21T06:07:49;41.33;;;13.13;;
52414;SDS011;38340;52.964;6.086;2024-02-21T06:10:14;43.85;;;13.60;;
52414;SDS011;38340;52.964;6.086;2024-02-21T06:12:40;44.92;;;12.70;;
52414;SDS011;38340;52.964;6.086;2024-02-21T06:15:06;39.08;;;12.98;;
52414;SDS011;38340;52.964;6.086;2024-02-21T06:17:32;48.22;;;15.43;;
52414;SDS011;38340;52.964;6.086;2024-02-21T06:19:58;54.67;;;14.93;;
52414;SDS011;38340;52.964;6.086;2024-02-21T06:22:23;52.67;;;14.25;;
52414;SDS011;38340;52.964;6.086;2024-02-21T06:24:49;48.10;;;13.77;;
52414;SDS011;38340;52.964;6.086;2024-02-21T06:27:15;44.35;;;13.02;;
52414;SDS011;38340;52.964;6.086;2024-02-21T06:29:42;47.47;;;12.68;;
52414;SDS011;38340;52.964;6.086;2024-02-21T06:32:08;37.55;;;12.15;;
52414;SDS011;38340;52.964;6.086;2024-02-21T06:34:33;41.47;;;11.07;;
52414;SDS011;38340;52.964;6.086;2024-02-21T06:36:59;38.47;;;11.02;;
52414;SDS011;38340;52.964;6.086;2024-02-21T06:39:25;35.80;;;10.27;;
52414;SDS011;38340;52.964;6.086;2024-02-21T06:41:51;52.90;;;11.45;;
52414;SDS011;38340;52.964;6.086;2024-02-21T06:44:18;32.70;;;10.10;;
52414;SDS011;38340;52.964;6.086;2024-02-21T06:46:44;41.90;;;10.82;;
52414;SDS011;38340;52.964;6.086;2024-02-21T06:49:10;40.38;;;11.02;;
52414;SDS011;38340;52.964;6.086;2024-02-21T06:51:41;35.85;;;11.23;;
52414;SDS011;38340;52.964;6.086;2024-02-21T06:54:10;30.80;;;10.82;;
52414;SDS011;38340;52.964;6.086;2024-02-21T06:56:36;71.35;;;12.57;;
52414;SDS011;38340;52.964;6.086;2024-02-21T06:59:02;32.90;;;9.13;;
52414;SDS011;38340;52.964;6.086;2024-02-21T07:01:28;30.17;;;8.93;;
52414;SDS011;38340;52.964;6.086;2024-02-21T07:03:54;40.25;;;10.00;;
52414;SDS011;38340;52.964;6.086;2024-02-21T07:06:20;54.33;;;10.98;;
52414;SDS011;38340;52.964;6.086;2024-02-21T07:08:46;29.23;;;8.15;;
52414;SDS011;38340;52.964;6.086;2024-02-21T07:11:11;34.72;;;9.82;;
52414;SDS011;38340;52.964;6.086;2024-02-21T07:13:37;29.75;;;11.15;;
52414;SDS011;38340;52.964;6.086;2024-02-21T07:16:03;31.15;;;12.63;;
52414;SDS011;38340;52.964;6.086;2024-02-21T07:18:29;23.08;;;8.93;;
52414;SDS011;38340;52.964;6.086;2024-02-21T07:20:55;24.92;;;8.45;;
52414;SDS011;38340;52.964;6.086;2024-02-21T07:23:21;23.75;;;9.13;;
52414;SDS011;38340;52.964;6.086;2024-02-21T07:25:47;25.98;;;9.35;;
52414;SDS011;38340;52.964;6.086;2024-02-21T07:28:13;23.83;;;8.23;;
52414;SDS011;38340;52.964;6.086;2024-02-21T07:30:39;31.85;;;8.68;;
52414;SDS011;38340;52.964;6.086;2024-02-21T07:33:05;19.58;;;9.48;;
52414;SDS011;38340;52.964;6.086;2024-02-21T07:35:32;20.10;;;8.68;;
52414;SDS011;38340;52.964;6.086;2024-02-21T07:37:58;24.70;;;9.40;;
52414;SDS011;38340;52.964;6.086;2024-02-21T07:40:23;24.70;;;8.55;;
52414;SDS011;38340;52.964;6.086;2024-02-21T07:42:49;22.13;;;10.02;;
52414;SDS011;38340;52.964;6.086;2024-02-21T07:45:15;23.83;;;9.65;;
52414;SDS011;38340;52.964;6.086;2024-02-21T07:47:41;24.25;;;9.65;;
52414;SDS011;38340;52.964;6.086;2024-02-21T07:50:06;21.55;;;9.88;;
52414;SDS011;38340;52.964;6.086;2024-02-21T07:52:33;24.58;;;9.70;;
52414;SDS011;38340;52.964;6.086;2024-02-21T07:54:58;29.60;;;10.98;;
52414;SDS011;38340;52.964;6.086;2024-02-21T07:57:24;30.45;;;10.80;;
52414;SDS011;38340;52.964;6.086;2024-02-21T07:59:50;21.27;;;11.23;;
52414;SDS011;38340;52.964;6.086;2024-02-21T08:02:15;24.25;;;12.23;;
52414;SDS011;38340;52.964;6.086;2024-02-21T08:04:41;24.63;;;13.30;;
52414;SDS011;38340;52.964;6.086;2024-02-21T08:07:07;27.67;;;14.25;;
52414;SDS011;38340;52.964;6.086;2024-02-21T08:09:34;31.23;;;15.80;;
52414;SDS011;38340;52.964;6.086;2024-02-21T08:12:01;29.50;;;15.73;;
52414;SDS011;38340;52.964;6.086;2024-02-21T08:14:27;35.50;;;16.35;;
52414;SDS011;38340;52.964;6.086;2024-02-21T08:16:52;29.70;;;15.85;;
52414;SDS011;38340;52.964;6.086;2024-02-21T08:19:20;39.60;;;17.17;;
52414;SDS011;38340;52.964;6.086;2024-02-21T08:21:46;37.35;;;18.70;;
52414;SDS011;38340;52.964;6.086;2024-02-21T08:24:12;30.00;;;17.65;;
52414;SDS011;38340;52.964;6.086;2024-02-21T08:26:41;32.50;;;18.52;;
52414;SDS011;38340;52.964;6.086;2024-02-21T08:29:09;29.58;;;18.20;;
52414;SDS011;38340;52.964;6.086;2024-02-21T08:31:35;35.45;;;18.75;;
52414;SDS011;38340;52.964;6.086;2024-02-21T08:34:01;29.52;;;18.05;;
52414;SDS011;38340;52.964;6.086;2024-02-21T08:36:31;34.50;;;18.33;;
52414;SDS011;38340;52.964;6.086;2024-02-21T08:38:58;39.17;;;19.10;;
52414;SDS011;38340;52.964;6.086;2024-02-21T08:41:24;33.03;;;18.77;;
52414;SDS011;38340;52.964;6.086;2024-02-21T08:43:51;29.75;;;18.10;;
52414;SDS011;38340;52.964;6.086;2024-02-21T08:46:17;30.58;;;16.77;;
52414;SDS011;38340;52.964;6.086;2024-02-21T08:48:43;31.90;;;18.02;;
52414;SDS011;38340;52.964;6.086;2024-02-21T08:51:11;37.10;;;17.65;;
52414;SDS011;38340;52.964;6.086;2024-02-21T08:53:40;31.83;;;17.20;;
52414;SDS011;38340;52.964;6.086;2024-02-21T08:56:06;31.27;;;18.40;;
52414;SDS011;38340;52.964;6.086;2024-02-21T08:58:35;26.55;;;17.30;;
52414;SDS011;38340;52.964;6.086;2024-02-21T09:01:05;27.35;;;16.48;;
52414;SDS011;38340;52.964;6.086;2024-02-21T09:03:37;27.35;;;18.20;;
52414;SDS011;38340;52.964;6.086;2024-02-21T09:06:06;30.73;;;16.98;;
52414;SDS011;38340;52.964;6.086;2024-02-21T09:08:32;32.50;;;17.40;;
52414;SDS011;38340;52.964;6.086;2024-02-21T09:11:02;29.48;;;16.90;;
52414;SDS011;38340;52.964;6.086;2024-02-21T09:13:28;27.90;;;16.52;;
52414;SDS011;38340;52.964;6.086;2024-02-21T09:15:55;27.65;;;17.20;;
52414;SDS011;38340;52.964;6.086;2024-02-21T09:18:20;26.77;;;16.52;;
52414;SDS011;38340;52.964;6.086;2024-02-21T09:20:46;28.20;;;17.02;;
52414;SDS011;38340;52.964;6.086;2024-02-21T09:23:13;23.70;;;15.45;;
52414;SDS011;38340;52.964;6.086;2024-02-21T09:25:39;27.60;;;17.50;;
52414;SDS011;38340;52.964;6.086;2024-02-21T09:28:05;25.77;;;16.67;;
52414;SDS011;38340;52.964;6.086;2024-02-21T09:30:35;24.67;;;17.27;;
52414;SDS011;38340;52.964;6.086;2024-02-21T09:33:00;27.13;;;17.80;;
52414;SDS011;38340;52.964;6.086;2024-02-21T09:35:27;26.73;;;16.83;;
52414;SDS011;38340;52.964;6.086;2024-02-21T09:37:53;29.67;;;16.42;;
52414;SDS011;38340;52.964;6.086;2024-02-21T09:40:19;28.95;;;17.77;;
52414;SDS011;38340;52.964;6.086;2024-02-21T09:42:46;29.90;;;17.98;;
52414;SDS011;38340;52.964;6.086;2024-02-21T09:45:23;31.05;;;17.70;;
52414;SDS011;38340;52.964;6.086;2024-02-21T09:50:39;35.17;;;18.40;;
52414;SDS011;38340;52.964;6.086;2024-02-21T09:53:09;28.38;;;18.23;;
52414;SDS011;38340;52.964;6.086;2024-02-21T09:55:37;28.65;;;17.90;;
52414;SDS011;38340;52.964;6.086;2024-02-21T09:58:05;27.42;;;17.38;;
52414;SDS011;38340;52.964;6.086;2024-02-21T10:00:32;26.65;;;18.05;;
52414;SDS011;38340;52.964;6.086;2024-02-21T10:02:58;28.35;;;17.90;;
52414;SDS011;38340;52.964;6.086;2024-02-21T10:05:24;28.92;;;17.45;;
52414;SDS011;38340;52.964;6.086;2024-02-21T10:07:51;29.50;;;19.15;;
52414;SDS011;38340;52.964;6.086;2024-02-21T10:10:16;32.28;;;20.65;;
52414;SDS011;38340;52.964;6.086;2024-02-21T10:12:52;34.03;;;20.90;;
52414;SDS011;38340;52.964;6.086;2024-02-21T10:15:23;30.83;;;20.30;;
52414;SDS011;38340;52.964;6.086;2024-02-21T10:17:59;28.15;;;19.23;;
52414;SDS011;38340;52.964;6.086;2024-02-21T10:20:28;36.00;;;20.40;;
52414;SDS011;38340;52.964;6.086;2024-02-21T10:23:00;28.02;;;18.35;;
52414;SDS011;38340;52.964;6.086;2024-02-21T10:25:35;25.58;;;17.95;;
52414;SDS011;38340;52.964;6.086;2024-02-21T10:28:11;26.70;;;18.52;;
52414;SDS011;38340;52.964;6.086;2024-02-21T10:30:37;31.77;;;19.55;;
52414;SDS011;38340;52.964;6.086;2024-02-21T10:33:03;34.00;;;20.48;;
52414;SDS011;38340;52.964;6.086;2024-02-21T10:35:31;36.65;;;21.15;;
52414;SDS011;38340;52.964;6.086;2024-02-21T10:37:58;40.88;;;22.40;;
52414;SDS011;38340;52.964;6.086;2024-02-21T10:40:26;40.55;;;22.85;;
52414;SDS011;38340;52.964;6.086;2024-02-21T10:42:56;37.50;;;21.73;;
52414;SDS011;38340;52.964;6.086;2024-02-21T10:45:44;29.85;;;20.42;;
52414;SDS011;38340;52.964;6.086;2024-02-21T10:48:11;31.13;;;19.63;;
52414;SDS011;38340;52.964;6.086;2024-02-21T10:55:56;30.77;;;18.63;;
52414;SDS011;38340;52.964;6.086;2024-02-21T10:58:30;28.50;;;17.73;;
52414;SDS011;38340;52.964;6.086;2024-02-21T11:00:57;22.83;;;16.67;;
52414;SDS011;38340;52.964;6.086;2024-02-21T11:03:22;24.95;;;16.63;;
52414;SDS011;38340;52.964;6.086;2024-02-21T11:05:49;27.60;;;17.85;;
52414;SDS011;38340;52.964;6.086;2024-02-21T11:08:15;30.75;;;17.75;;
52414;SDS011;38340;52.964;6.086;2024-02-21T11:10:45;24.60;;;16.63;;
52414;SDS011;38340;52.964;6.086;2024-02-21T11:13:11;24.17;;;16.35;;
52414;SDS011;38340;52.964;6.086;2024-02-21T11:15:38;21.95;;;15.55;;
52414;SDS011;38340;52.964;6.086;2024-02-21T11:18:04;26.60;;;15.95;;
52414;SDS011;38340;52.964;6.086;2024-02-21T11:20:36;27.83;;;16.25;;
52414;SDS011;38340;52.964;6.086;2024-02-21T11:23:03;24.20;;;15.00;;
52414;SDS011;38340;52.964;6.086;2024-02-21T11:25:29;20.95;;;14.13;;
52414;SDS011;38340;52.964;6.086;2024-02-21T11:28:00;20.75;;;15.15;;
52414;SDS011;38340;52.964;6.086;2024-02-21T11:30:29;19.73;;;14.32;;
52414;SDS011;38340;52.964;6.086;2024-02-21T11:33:00;27.83;;;14.40;;
52414;SDS011;38340;52.964;6.086;2024-02-21T11:35:32;16.98;;;13.18;;
52414;SDS011;38340;52.964;6.086;2024-02-21T11:38:09;19.73;;;13.60;;
52414;SDS011;38340;52.964;6.086;2024-02-21T11:40:38;24.98;;;14.98;;
52414;SDS011;38340;52.964;6.086;2024-02-21T11:43:05;21.42;;;13.95;;
52414;SDS011;38340;52.964;6.086;2024-02-21T11:45:31;16.77;;;12.95;;
52414;SDS011;38340;52.964;6.086;2024-02-21T11:47:57;21.33;;;12.77;;
52414;SDS011;38340;52.964;6.086;2024-02-21T11:50:25;16.92;;;12.75;;
52414;SDS011;38340;52.964;6.086;2024-02-21T11:52:54;20.80;;;12.93;;
52414;SDS011;38340;52.964;6.086;2024-02-21T11:55:20;19.63;;;13.18;;
52414;SDS011;38340;52.964;6.086;2024-02-21T11:57:50;17.63;;;11.70;;
52414;SDS011;38340;52.964;6.086;2024-02-21T12:00:19;20.00;;;13.07;;
52414;SDS011;38340;52.964;6.086;2024-02-21T12:02:46;18.67;;;12.05;;
52414;SDS011;38340;52.964;6.086;2024-02-21T12:05:11;18.08;;;12.48;;
52414;SDS011;38340;52.964;6.086;2024-02-21T12:07:37;15.10;;;11.10;;
52414;SDS011;38340;52.964;6.086;2024-02-21T12:10:08;17.73;;;12.77;;
52414;SDS011;38340;52.964;6.086;2024-02-21T12:12:35;17.52;;;10.88;;
52414;SDS011;38340;52.964;6.086;2024-02-21T12:15:02;18.38;;;10.20;;
52414;SDS011;38340;52.964;6.086;2024-02-21T12:17:30;16.35;;;10.60;;
52414;SDS011;38340;52.964;6.086;2024-02-21T12:19:58;18.65;;;11.05;;
52414;SDS011;38340;52.964;6.086;2024-02-21T12:22:24;17.55;;;9.90;;
52414;SDS011;38340;52.964;6.086;2024-02-21T12:24:50;14.60;;;9.45;;
52414;SDS011;38340;52.964;6.086;2024-02-21T12:27:16;13.20;;;9.50;;
52414;SDS011;38340;52.964;6.086;2024-02-21T12:29:42;11.55;;;8.20;;
52414;SDS011;38340;52.964;6.086;2024-02-21T12:32:07;13.57;;;9.75;;
52414;SDS011;38340;52.964;6.086;2024-02-21T12:34:33;13.10;;;9.27;;
52414;SDS011;38340;52.964;6.086;2024-02-21T12:36:59;11.82;;;8.93;;
52414;SDS011;38340;52.964;6.086;2024-02-21T12:39:24;13.35;;;9.15;;
52414;SDS011;38340;52.964;6.086;2024-02-21T12:41:53;11.45;;;8.18;;
52414;SDS011;38340;52.964;6.086;2024-02-21T12:44:21;16.48;;;9.18;;
52414;SDS011;38340;52.964;6.086;2024-02-21T12:46:46;14.43;;;9.10;;
52414;SDS011;38340;52.964;6.086;2024-02-21T12:49:17;12.68;;;8.63;;
52414;SDS011;38340;52.964;6.086;2024-02-21T12:51:43;11.30;;;8.05;;
52414;SDS011;38340;52.964;6.086;2024-02-21T12:54:11;11.15;;;7.88;;
52414;SDS011;38340;52.964;6.086;2024-02-21T12:56:37;11.35;;;8.13;;
52414;SDS011;38340;52.964;6.086;2024-02-21T12:59:04;13.18;;;7.75;;
52414;SDS011;38340;52.964;6.086;2024-02-21T13:01:34;12.30;;;8.40;;
52414;SDS011;38340;52.964;6.086;2024-02-21T13:04:00;10.50;;;7.22;;
52414;SDS011;38340;52.964;6.086;2024-02-21T13:06:26;9.88;;;7.40;;
52414;SDS011;38340;52.964;6.086;2024-02-21T13:08:53;11.65;;;7.72;;
52414;SDS011;38340;52.964;6.086;2024-02-21T13:11:18;10.43;;;6.97;;
52414;SDS011;38340;52.964;6.086;2024-02-21T13:13:44;8.85;;;7.20;;
52414;SDS011;38340;52.964;6.086;2024-02-21T13:16:10;9.50;;;6.80;;
52414;SDS011;38340;52.964;6.086;2024-02-21T13:18:36;11.25;;;7.82;;
52414;SDS011;38340;52.964;6.086;2024-02-21T13:21:03;10.18;;;6.85;;
52414;SDS011;38340;52.964;6.086;2024-02-21T13:23:29;9.98;;;7.25;;
52414;SDS011;38340;52.964;6.086;2024-02-21T13:25:55;10.88;;;7.75;;
52414;SDS011;38340;52.964;6.086;2024-02-21T13:28:21;8.98;;;7.53;;
52414;SDS011;38340;52.964;6.086;2024-02-21T13:30:47;8.88;;;7.45;;
52414;SDS011;38340;52.964;6.086;2024-02-21T13:33:13;8.50;;;6.78;;
52414;SDS011;38340;52.964;6.086;2024-02-21T13:35:38;8.07;;;7.10;;
52414;SDS011;38340;52.964;6.086;2024-02-21T13:38:04;9.35;;;7.88;;
52414;SDS011;38340;52.964;6.086;2024-02-21T13:40:30;10.63;;;7.85;;
52414;SDS011;38340;52.964;6.086;2024-02-21T13:42:56;10.20;;;7.38;;
52414;SDS011;38340;52.964;6.086;2024-02-21T13:45:22;9.90;;;7.88;;
52414;SDS011;38340;52.964;6.086;2024-02-21T13:47:47;10.73;;;8.02;;
52414;SDS011;38340;52.964;6.086;2024-02-21T13:50:13;12.00;;;7.93;;
52414;SDS011;38340;52.964;6.086;2024-02-21T13:52:39;12.02;;;7.88;;
52414;SDS011;38340;52.964;6.086;2024-02-21T13:55:08;13.32;;;8.65;;
52414;SDS011;38340;52.964;6.086;2024-02-21T13:57:34;11.82;;;8.27;;
52414;SDS011;38340;52.964;6.086;2024-02-21T14:00:01;12.70;;;8.85;;
52414;SDS011;38340;52.964;6.086;2024-02-21T14:02:28;12.02;;;9.15;;
52414;SDS011;38340;52.964;6.086;2024-02-21T14:04:54;11.35;;;9.10;;
52414;SDS011;38340;52.964;6.086;2024-02-21T14:07:20;11.98;;;8.93;;
52414;SDS011;38340;52.964;6.086;2024-02-21T14:09:45;9.38;;;8.23;;
52414;SDS011;38340;52.964;6.086;2024-02-21T14:12:11;12.15;;;8.75;;
52414;SDS011;38340;52.964;6.086;2024-02-21T14:14:37;10.18;;;8.57;;
52414;SDS011;38340;52.964;6.086;2024-02-21T14:17:03;12.90;;;9.35;;
52414;SDS011;38340;52.964;6.086;2024-02-21T14:19:29;12.75;;;9.07;;
52414;SDS011;38340;52.964;6.086;2024-02-21T14:21:55;11.23;;;8.77;;
52414;SDS011;38340;52.964;6.086;2024-02-21T14:24:21;12.30;;;8.45;;
52414;SDS011;38340;52.964;6.086;2024-02-21T14:26:48;11.55;;;8.52;;
52414;SDS011;38340;52.964;6.086;2024-02-21T14:29:14;12.80;;;8.30;;
52414;SDS011;38340;52.964;6.086;2024-02-21T14:31:39;11.23;;;7.80;;
52414;SDS011;38340;52.964;6.086;2024-02-21T14:34:05;12.43;;;9.25;;